createdAt,value
2018-01-05T00:00:30.369Z,6.96
2018-01-05T00:02:57.994Z,6.96
2018-01-05T00:05:25.659Z,7.10
2018-01-05T00:07:53.328Z,7.05
2018-01-05T00:10:21.037Z,7.15
2018-01-05T00:12:48.607Z,7.29
2018-01-05T00:15:16.224Z,7.36
2018-01-05T00:17:43.925Z,7.37
2018-01-05T00:20:11.494Z,7.46
2018-01-05T00:22:39.068Z,7.53
2018-01-05T00:25:06.679Z,7.62
2018-01-05T00:27:34.247Z,7.76
2018-01-05T00:30:02.580Z,7.73
2018-01-05T00:32:30.204Z,7.86
2018-01-05T00:34:57.787Z,7.92
2018-01-05T00:37:25.412Z,7.86
2018-01-05T00:39:53.027Z,7.98
2018-01-05T00:42:20.595Z,7.97
2018-01-05T00:44:48.218Z,7.96
2018-01-05T00:47:15.827Z,8.04
2018-01-05T00:49:43.487Z,7.96
2018-01-05T00:52:11.105Z,8.02
2018-01-05T00:54:38.715Z,7.98
2018-01-05T00:57:06.326Z,7.97
2018-01-05T00:59:33.939Z,7.98
2018-01-05T01:02:01.655Z,7.98
2018-01-05T01:04:29.235Z,8.08
2018-01-05T01:06:56.811Z,8.03
2018-01-05T01:09:24.487Z,7.98
2018-01-05T01:11:52.852Z,7.90
2018-01-05T01:14:20.463Z,7.84
2018-01-05T01:16:48.036Z,7.86
2018-01-05T01:19:15.641Z,7.81
2018-01-05T01:21:43.215Z,7.87
2018-01-05T01:24:10.867Z,7.98
2018-01-05T01:26:38.443Z,8.02
2018-01-05T01:29:06.099Z,8.06
2018-01-05T01:31:33.765Z,8.05
2018-01-05T01:34:01.425Z,8.11
2018-01-05T01:36:29.091Z,8.11
2018-01-05T01:38:56.669Z,8.25
2018-01-05T01:41:24.295Z,8.27
2018-01-05T01:43:51.868Z,8.24
2018-01-05T01:46:19.477Z,8.17
2018-01-05T01:48:49.823Z,8.22
2018-01-05T01:51:17.421Z,8.29
2018-01-05T01:53:45.115Z,8.35
2018-01-05T01:56:12.747Z,8.43
2018-01-05T01:58:40.357Z,8.51
2018-01-05T02:01:08.021Z,8.56
2018-01-05T02:03:35.627Z,8.59
2018-01-05T02:06:03.199Z,8.56
2018-01-05T02:08:30.780Z,8.53
2018-01-05T02:10:58.416Z,8.58
2018-01-05T02:13:26.079Z,8.64
2018-01-05T02:15:53.651Z,8.72
2018-01-05T02:18:21.227Z,8.72
2018-01-05T02:20:48.859Z,8.75
2018-01-05T02:23:16.438Z,8.79
2018-01-05T02:25:44.016Z,8.65
2018-01-05T02:28:11.639Z,8.56
2018-01-05T02:30:39.213Z,8.63
2018-01-05T02:33:06.840Z,8.47
2018-01-05T02:35:34.410Z,8.38
2018-01-05T02:38:02.091Z,8.32
2018-01-05T02:40:29.670Z,8.27
2018-01-05T02:42:57.243Z,8.21
2018-01-05T02:45:24.936Z,8.16
2018-01-05T02:47:52.562Z,8.22
2018-01-05T02:50:20.202Z,8.17
2018-01-05T02:52:47.813Z,8.16
2018-01-05T02:55:15.434Z,8.25
2018-01-05T02:57:43.011Z,8.28
2018-01-05T03:00:10.632Z,8.29
2018-01-05T03:02:39.134Z,8.27
2018-01-05T03:05:06.791Z,8.27
2018-01-05T03:07:34.375Z,8.24
2018-01-05T03:10:02.020Z,8.32
2018-01-05T03:12:29.663Z,8.41
2018-01-05T03:14:57.236Z,8.46
2018-01-05T03:17:24.819Z,8.51
2018-01-05T03:19:53.283Z,8.60
2018-01-05T03:22:20.867Z,8.60
2018-01-05T03:24:48.435Z,8.60
2018-01-05T03:27:16.885Z,8.58
2018-01-05T03:29:44.456Z,8.60
2018-01-05T03:32:12.070Z,8.51
2018-01-05T03:34:39.643Z,8.47
2018-01-05T03:37:07.231Z,8.38
2018-01-05T03:39:35.565Z,8.28
2018-01-05T03:42:03.956Z,8.29
2018-01-05T03:44:31.688Z,8.25
2018-01-05T03:47:00.155Z,8.24
2018-01-05T03:49:28.631Z,8.23
2018-01-05T03:51:56.967Z,8.18
2018-01-05T03:54:25.690Z,8.11
2018-01-05T03:56:53.279Z,8.09
2018-01-05T03:59:20.853Z,8.11
2018-01-05T04:01:48.468Z,8.07
2018-01-05T04:04:16.942Z,8.01
2018-01-05T04:06:45.446Z,8.08
2018-01-05T04:09:13.490Z,8.02
2018-01-05T04:11:41.166Z,8.02
2018-01-05T04:14:08.793Z,8.11
2018-01-05T04:16:37.306Z,8.09
2018-01-05T04:19:06.140Z,8.12
2018-01-05T04:21:33.771Z,8.00
2018-01-05T04:24:01.428Z,8.05
2018-01-05T04:26:30.013Z,8.06
2018-01-05T04:28:58.536Z,8.11
2018-01-05T04:31:26.155Z,8.22
2018-01-05T04:33:53.767Z,8.25
2018-01-05T04:36:22.236Z,8.16
2018-01-05T04:38:50.742Z,8.15
2018-01-05T04:41:18.532Z,8.15
2018-01-05T04:43:46.118Z,8.11
2018-01-05T04:46:14.613Z,8.00
2018-01-05T04:48:43.076Z,8.02
2018-01-05T04:51:10.661Z,8.04
2018-01-05T04:53:38.272Z,8.08
2018-01-05T04:56:05.846Z,8.02
2018-01-05T04:58:33.622Z,7.99
2018-01-05T05:01:01.197Z,7.98
2018-01-05T05:03:28.779Z,7.99
2018-01-05T05:05:56.363Z,7.95
2018-01-05T05:08:23.926Z,7.79
2018-01-05T05:10:51.503Z,7.62
2018-01-05T05:13:19.081Z,7.62
2018-01-05T05:15:46.660Z,7.59
2018-01-05T05:18:14.226Z,7.57
2018-01-05T05:20:41.882Z,7.56
2018-01-05T05:23:09.455Z,7.48
2018-01-05T05:25:37.095Z,7.45
2018-01-05T05:28:04.756Z,7.38
2018-01-05T05:30:32.327Z,7.25
2018-01-05T05:32:59.899Z,7.15
2018-01-05T05:35:27.555Z,7.14
2018-01-05T05:37:55.210Z,7.03
2018-01-05T05:40:22.782Z,6.96
2018-01-05T05:42:51.127Z,6.77
2018-01-05T05:45:18.707Z,6.65
2018-01-05T05:47:46.274Z,6.52
2018-01-05T05:50:14.846Z,6.56
2018-01-05T05:52:42.463Z,6.46
2018-01-05T05:55:10.030Z,6.53
2018-01-05T05:57:37.602Z,6.40
2018-01-05T06:00:06.119Z,6.29
2018-01-05T06:02:33.693Z,6.26
2018-01-05T06:05:01.340Z,6.25
2018-01-05T06:07:29.013Z,6.15
2018-01-05T06:09:57.503Z,6.24
2018-01-05T06:12:25.107Z,6.19
2018-01-05T06:14:53.707Z,6.24
2018-01-05T06:17:21.454Z,6.28
2018-01-05T06:19:49.058Z,6.29
2018-01-05T06:22:17.597Z,6.35
2018-01-05T06:24:45.243Z,6.29
2018-01-05T06:27:13.792Z,6.32
2018-01-05T06:29:42.126Z,6.42
2018-01-05T06:32:09.726Z,6.54
2018-01-05T06:34:37.298Z,6.61
2018-01-05T06:37:04.915Z,6.82
2018-01-05T06:39:32.483Z,6.88
2018-01-05T06:42:00.060Z,6.82
2018-01-05T06:44:28.408Z,6.92
2018-01-05T06:46:55.975Z,6.93
2018-01-05T06:49:23.540Z,6.95
2018-01-05T06:51:51.107Z,6.94
2018-01-05T06:54:18.667Z,6.89
2018-01-05T06:56:46.226Z,6.99
2018-01-05T06:59:14.482Z,7.03
2018-01-05T07:01:42.048Z,7.02
2018-01-05T07:04:10.382Z,7.15
2018-01-05T07:06:37.947Z,7.13
2018-01-05T07:11:33.296Z,7.27
2018-01-05T07:14:01.759Z,7.35
2018-01-05T07:16:29.334Z,7.46
2018-01-05T07:18:56.944Z,7.37
2018-01-05T07:21:25.414Z,7.37
2018-01-05T07:23:52.978Z,7.32
2018-01-05T07:26:20.556Z,7.28
2018-01-05T07:28:48.124Z,7.34
2018-01-05T07:31:15.695Z,7.33
2018-01-05T07:33:43.259Z,7.35
2018-01-05T07:36:10.829Z,7.44
2018-01-05T07:38:38.406Z,7.47
2018-01-05T07:41:05.980Z,7.57
2018-01-05T07:43:34.470Z,7.61
2018-01-05T07:46:02.039Z,7.55
2018-01-05T07:48:30.414Z,7.59
2018-01-05T07:50:57.978Z,7.72
2018-01-05T07:53:25.542Z,7.59
2018-01-05T07:55:53.159Z,7.57
2018-01-05T07:58:21.652Z,7.50
2018-01-05T08:00:49.212Z,7.58
2018-01-05T08:03:17.686Z,7.63
2018-01-05T08:05:45.266Z,7.62
2018-01-05T08:08:12.832Z,7.59
2018-01-05T08:10:40.406Z,7.61
2018-01-05T08:13:07.979Z,7.63
2018-01-05T08:15:35.562Z,7.64
2018-01-05T08:18:03.140Z,7.67
2018-01-05T08:20:30.778Z,7.70
2018-01-05T08:22:58.375Z,7.77
2018-01-05T08:25:25.952Z,7.88
2018-01-05T08:27:53.595Z,7.90
2018-01-05T08:30:21.218Z,8.03
2018-01-05T08:32:48.786Z,8.15
2018-01-05T08:35:16.352Z,8.11
2018-01-05T08:37:43.920Z,8.20
2018-01-05T08:40:11.482Z,8.12
2018-01-05T08:42:39.118Z,8.15
2018-01-05T08:45:06.686Z,8.18
2018-01-05T08:47:34.263Z,8.21
2018-01-05T08:50:01.907Z,8.37
2018-01-05T08:52:29.482Z,8.44
2018-01-05T08:54:57.128Z,8.59
2018-01-05T08:57:24.694Z,8.54
2018-01-05T08:59:52.296Z,8.61
2018-01-05T09:02:19.986Z,8.54
2018-01-05T09:04:47.569Z,8.64
2018-01-05T09:07:15.133Z,8.69
2018-01-05T09:09:42.705Z,8.61
2018-01-05T09:12:10.302Z,8.70
2018-01-05T09:14:39.855Z,8.63
2018-01-05T09:17:08.247Z,8.65
2018-01-05T09:19:38.097Z,8.65
2018-01-05T09:22:05.669Z,8.70
2018-01-05T09:24:33.243Z,8.81
2018-01-05T09:27:00.818Z,8.85
2018-01-05T09:29:28.903Z,8.84
2018-01-05T09:31:57.596Z,8.89
2018-01-05T09:34:26.135Z,8.95
2018-01-05T09:36:53.968Z,8.98
2018-01-05T09:39:21.611Z,9.02
2018-01-05T09:41:49.218Z,9.07
2018-01-05T09:44:16.851Z,9.10
2018-01-05T09:46:44.424Z,9.20
2018-01-05T09:49:12.781Z,9.33
2018-01-05T09:51:40.486Z,9.35
2018-01-05T09:54:08.182Z,9.36
2018-01-05T09:56:35.819Z,9.39
2018-01-05T09:59:03.444Z,9.38
2018-01-05T10:01:31.110Z,9.43
2018-01-05T10:03:58.720Z,9.51
2018-01-05T10:06:26.287Z,9.45
2018-01-05T10:08:53.855Z,9.56
2018-01-05T10:11:21.428Z,9.45
2018-01-05T10:13:49.054Z,9.37
2018-01-05T10:16:16.898Z,9.44
2018-01-05T10:18:44.504Z,9.57
2018-01-05T10:21:12.136Z,9.49
2018-01-05T10:23:39.764Z,9.53
2018-01-05T10:26:07.398Z,9.60
2018-01-05T10:28:35.003Z,9.56
2018-01-05T10:31:02.650Z,9.52
2018-01-05T10:33:30.282Z,9.53
2018-01-05T10:35:57.861Z,9.63
2018-01-05T10:38:25.508Z,9.85
2018-01-05T10:40:53.137Z,9.77
2018-01-05T10:43:20.760Z,9.79
2018-01-05T10:45:48.334Z,9.81
2018-01-05T10:48:15.917Z,9.83
2018-01-05T10:50:43.864Z,9.81
2018-01-05T10:53:12.372Z,9.90
2018-01-05T10:55:40.027Z,9.98
2018-01-05T10:58:07.594Z,9.81
2018-01-05T11:00:35.162Z,9.98
2018-01-05T11:03:02.811Z,10.03
2018-01-05T11:05:30.390Z,9.95
2018-01-05T11:07:58.070Z,9.91
2018-01-05T11:10:25.650Z,10.02
2018-01-05T11:12:53.246Z,9.99
2018-01-05T11:15:20.959Z,10.17
2018-01-05T11:17:48.534Z,10.25
2018-01-05T11:20:16.147Z,10.37
2018-01-05T11:22:43.722Z,10.43
2018-01-05T11:25:11.294Z,10.54
2018-01-05T11:27:38.914Z,10.54
2018-01-05T11:30:06.547Z,10.53
2018-01-05T11:32:34.259Z,10.49
2018-01-05T11:35:01.831Z,10.45
2018-01-05T11:37:29.450Z,10.31
2018-01-05T11:39:57.154Z,10.33
2018-01-05T11:42:24.924Z,10.30
2018-01-05T11:44:52.503Z,10.39
2018-01-05T11:47:20.130Z,10.35
2018-01-05T11:49:47.707Z,10.32
2018-01-05T11:52:15.286Z,10.25
2018-01-05T11:54:42.958Z,10.26
2018-01-05T11:57:10.780Z,10.29
2018-01-05T11:59:38.448Z,10.38
2018-01-05T12:02:06.031Z,10.36
2018-01-05T12:04:33.665Z,10.43
2018-01-05T12:07:01.276Z,10.43
2018-01-05T12:09:29.447Z,10.39
2018-01-05T12:11:57.174Z,10.34
2018-01-05T12:14:24.804Z,10.42
2018-01-05T12:16:52.386Z,10.38
2018-01-05T12:19:19.959Z,10.41
2018-01-05T12:21:47.526Z,10.36
2018-01-05T12:24:15.264Z,10.31
2018-01-05T12:26:42.827Z,10.39
2018-01-05T12:29:10.398Z,10.40
2018-01-05T12:31:37.971Z,10.23
2018-01-05T12:34:05.573Z,9.93
2018-01-05T12:36:33.146Z,9.79
2018-01-05T12:39:00.796Z,9.64
2018-01-05T12:41:28.403Z,9.49
2018-01-05T12:43:56.171Z,9.54
2018-01-05T12:46:23.798Z,9.58
2018-01-05T12:48:51.426Z,9.59
2018-01-05T12:51:19.026Z,9.63
2018-01-05T12:53:47.454Z,9.69
2018-01-05T12:56:15.134Z,9.70
2018-01-05T12:58:42.743Z,9.84
2018-01-05T13:01:10.311Z,9.88
2018-01-05T13:03:37.873Z,9.95
2018-01-05T13:06:05.484Z,9.98
2018-01-05T13:08:33.140Z,9.93
2018-01-05T13:11:00.714Z,10.00
2018-01-05T13:13:28.375Z,10.06
2018-01-05T13:15:55.956Z,10.14
2018-01-05T13:18:23.522Z,10.06
2018-01-05T13:20:51.096Z,10.15
2018-01-05T13:23:18.706Z,10.16
2018-01-05T13:25:46.366Z,10.23
2018-01-05T13:28:13.973Z,10.11
2018-01-05T13:30:41.548Z,10.14
2018-01-05T13:33:11.294Z,10.04
2018-01-05T13:35:38.898Z,10.13
2018-01-05T13:38:06.476Z,9.96
2018-01-05T13:40:34.074Z,9.81
2018-01-05T13:43:01.750Z,9.81
2018-01-05T13:45:29.318Z,9.58
2018-01-05T13:47:56.975Z,9.55
2018-01-05T13:50:24.547Z,9.54
2018-01-05T13:52:52.108Z,9.40
2018-01-05T13:55:19.679Z,9.43
2018-01-05T13:57:47.246Z,9.35
2018-01-05T14:00:14.810Z,9.25
2018-01-05T14:02:42.374Z,9.32
2018-01-05T14:05:10.265Z,9.24
2018-01-05T14:07:37.835Z,9.28
2018-01-05T14:10:05.399Z,9.20
2018-01-05T14:12:32.965Z,9.21
2018-01-05T14:15:00.530Z,9.15
2018-01-05T14:17:28.990Z,9.12
2018-01-05T14:19:57.464Z,9.19
2018-01-05T14:22:25.916Z,9.07
2018-01-05T14:24:53.478Z,8.96
2018-01-05T14:27:21.810Z,8.97
2018-01-05T14:29:50.182Z,8.94
2018-01-05T14:32:18.734Z,8.79
2018-01-05T14:34:47.116Z,8.80
2018-01-05T14:37:15.458Z,8.73
2018-01-05T14:39:43.056Z,8.71
2018-01-05T14:42:11.615Z,8.62
2018-01-05T14:44:39.330Z,8.51
2018-01-05T14:47:07.795Z,8.53
2018-01-05T14:49:36.272Z,8.39
2018-01-05T14:52:04.423Z,8.45
2018-01-05T14:54:31.987Z,8.35
2018-01-05T14:56:59.638Z,8.33
2018-01-05T14:59:27.205Z,8.34
2018-01-05T15:01:54.771Z,8.31
2018-01-05T15:04:22.343Z,8.32
2018-01-05T15:06:49.951Z,8.25
2018-01-05T15:09:17.515Z,8.21
2018-01-05T15:11:45.074Z,8.16
2018-01-05T15:14:12.640Z,8.22
2018-01-05T15:16:40.206Z,8.00
2018-01-05T15:19:07.767Z,7.96
2018-01-05T15:21:35.327Z,7.89
2018-01-05T15:24:02.891Z,7.87
2018-01-05T15:26:30.498Z,7.90
2018-01-05T15:28:58.066Z,7.86
2018-01-05T15:31:25.665Z,7.90
2018-01-05T15:33:53.235Z,7.85
2018-01-05T15:36:20.919Z,7.86
2018-01-05T15:38:48.583Z,7.79
2018-01-05T15:41:16.150Z,7.75
2018-01-05T15:43:44.508Z,7.80
2018-01-05T15:46:12.103Z,7.78
2018-01-05T15:48:39.664Z,7.73
2018-01-05T15:51:08.162Z,7.72
2018-01-05T15:53:35.719Z,7.76
2018-01-05T15:56:03.278Z,7.76
2018-01-05T15:58:30.847Z,7.72
2018-01-05T16:00:58.406Z,7.73
2018-01-05T16:03:25.968Z,7.61
2018-01-05T16:05:53.535Z,7.62
2018-01-05T16:08:21.151Z,7.53
2018-01-05T16:10:48.719Z,7.58
2018-01-05T16:13:17.063Z,7.53
2018-01-05T16:15:45.403Z,7.57
2018-01-05T16:18:13.922Z,7.46
2018-01-05T16:20:41.520Z,7.41
2018-01-05T16:23:09.683Z,7.34
2018-01-05T16:25:37.258Z,7.40
2018-01-05T16:28:04.911Z,7.39
2018-01-05T16:30:32.483Z,7.33
2018-01-05T16:33:00.136Z,7.37
2018-01-05T16:35:27.703Z,7.29
2018-01-05T16:37:55.275Z,7.30
2018-01-05T16:40:22.919Z,7.31
2018-01-05T16:42:50.484Z,7.28
2018-01-05T16:45:18.149Z,7.22
2018-01-05T16:47:45.810Z,7.19
2018-01-05T16:50:13.407Z,7.19
2018-01-05T16:52:40.967Z,7.13
2018-01-05T16:55:08.544Z,7.12
2018-01-05T16:57:36.115Z,7.06
2018-01-05T17:00:03.683Z,7.12
2018-01-05T17:02:31.241Z,7.05
2018-01-05T17:04:58.832Z,6.99
2018-01-05T17:07:26.435Z,7.09
2018-01-05T17:09:54.005Z,7.17
2018-01-05T17:12:21.573Z,7.12
2018-01-05T17:14:49.184Z,7.09
2018-01-05T17:17:16.848Z,7.07
2018-01-05T17:19:44.420Z,7.00
2018-01-05T17:22:14.484Z,7.12
2018-01-05T17:24:43.430Z,7.03
2018-01-05T17:27:11.741Z,7.08
2018-01-05T17:29:39.362Z,7.16
2018-01-05T17:32:06.930Z,7.14
2018-01-05T17:34:34.500Z,7.03
2018-01-05T17:37:02.072Z,7.14
2018-01-05T17:39:29.673Z,6.99
2018-01-05T17:41:58.014Z,7.02
2018-01-05T17:44:25.860Z,6.96
2018-01-05T17:46:53.544Z,6.90
2018-01-05T17:49:21.203Z,6.95
2018-01-05T17:51:48.814Z,6.87
2018-01-05T17:54:16.394Z,6.98
2018-01-05T17:56:43.963Z,7.07
2018-01-05T17:59:11.623Z,6.97
2018-01-05T18:01:39.213Z,6.90
2018-01-05T18:04:06.779Z,6.89
2018-01-05T18:06:34.347Z,6.76
2018-01-05T18:09:01.913Z,6.66
2018-01-05T18:11:29.478Z,6.60
2018-01-05T18:13:57.091Z,6.49
2018-01-05T18:16:24.752Z,6.44
2018-01-05T18:18:52.314Z,6.34
2018-01-05T18:21:19.972Z,6.38
2018-01-05T18:23:47.893Z,6.32
2018-01-05T18:26:16.636Z,6.24
2018-01-05T18:28:45.636Z,6.12
2018-01-05T18:31:14.759Z,6.07
2018-01-05T18:33:43.308Z,6.01
2018-01-05T18:36:11.767Z,5.86
2018-01-05T18:38:39.327Z,5.80
2018-01-05T18:41:07.832Z,5.71
2018-01-05T18:43:35.521Z,5.65
2018-01-05T18:46:03.126Z,5.55
2018-01-05T18:48:30.699Z,5.49
2018-01-05T18:50:59.003Z,5.44
2018-01-05T18:53:26.599Z,5.38
2018-01-05T18:55:54.339Z,5.28
2018-01-05T18:58:22.036Z,5.22
2018-01-05T19:00:49.606Z,5.14
2018-01-05T19:03:17.207Z,5.05
2018-01-05T19:05:44.819Z,5.02
2018-01-05T19:08:12.436Z,4.97
2018-01-05T19:10:40.124Z,4.99
2018-01-05T19:13:09.147Z,5.00
2018-01-05T19:15:36.747Z,4.98
2018-01-05T19:18:04.410Z,4.93
2018-01-05T19:20:31.987Z,4.87
2018-01-05T19:22:59.633Z,4.80
2018-01-05T19:25:27.206Z,4.83
2018-01-05T19:27:54.785Z,4.79
2018-01-05T19:30:22.369Z,4.69
2018-01-05T19:32:49.943Z,4.54
2018-01-05T19:35:17.552Z,4.48
2018-01-05T19:37:45.300Z,4.42
2018-01-05T19:40:13.720Z,4.37
2018-01-05T19:42:42.286Z,4.33
2018-01-05T19:45:09.859Z,4.24
2018-01-05T19:47:37.650Z,4.26
2018-01-05T19:50:05.262Z,4.26
2018-01-05T19:52:32.834Z,4.29
2018-01-05T19:55:00.415Z,4.31
2018-01-05T19:57:27.985Z,4.36
2018-01-05T19:59:55.596Z,4.40
2018-01-05T20:02:24.103Z,4.43
2018-01-05T20:04:52.463Z,4.50
2018-01-05T20:07:20.131Z,4.58
2018-01-05T20:09:47.798Z,4.52
2018-01-05T20:12:15.411Z,4.50
2018-01-05T20:14:43.026Z,4.45
2018-01-05T20:17:10.635Z,4.43
2018-01-05T20:19:39.140Z,4.50
2018-01-05T20:22:07.726Z,4.40
2018-01-05T20:24:36.191Z,4.38
2018-01-05T20:27:03.772Z,4.40
2018-01-05T20:29:31.351Z,4.37
2018-01-05T20:31:59.010Z,4.33
2018-01-05T20:34:26.670Z,4.31
2018-01-05T20:36:54.334Z,4.30
2018-01-05T20:39:21.995Z,4.28
2018-01-05T20:41:49.662Z,4.30
2018-01-05T20:44:17.238Z,4.34
2018-01-05T20:46:44.884Z,4.34
2018-01-05T20:49:13.875Z,4.39
2018-01-05T20:51:41.449Z,4.37
2018-01-05T20:54:09.107Z,4.36
2018-01-05T20:56:37.576Z,4.35
2018-01-05T20:59:05.259Z,4.34
2018-01-05T21:01:33.831Z,4.30
2018-01-05T21:04:01.402Z,4.36
2018-01-05T21:06:28.982Z,4.39
2018-01-05T21:08:56.854Z,4.32
2018-01-05T21:11:24.430Z,4.34
2018-01-05T21:13:52.282Z,4.35
2018-01-05T21:16:19.862Z,4.36
2018-01-05T21:18:47.506Z,4.39
2018-01-05T21:21:15.132Z,4.42
2018-01-05T21:23:42.803Z,4.43
2018-01-05T21:26:11.346Z,4.45
2018-01-05T21:28:38.910Z,4.50
2018-01-05T21:31:06.634Z,4.56
2018-01-05T21:33:34.234Z,4.70
2018-01-05T21:36:01.930Z,4.81
2018-01-05T21:38:29.564Z,4.86
2018-01-05T21:40:57.256Z,4.95
2018-01-05T21:43:24.924Z,5.08
2018-01-05T21:45:52.486Z,5.17
2018-01-05T21:48:21.110Z,5.21
2018-01-05T21:50:48.835Z,5.32
2018-01-05T21:53:16.458Z,5.49
2018-01-05T21:55:44.023Z,5.44
2018-01-05T21:58:11.603Z,5.54
2018-01-05T22:00:39.171Z,5.55
2018-01-05T22:03:07.241Z,5.45
2018-01-05T22:05:34.917Z,5.40
2018-01-05T22:08:02.530Z,5.33
2018-01-05T22:10:30.146Z,5.24
2018-01-05T22:12:57.815Z,5.18
2018-01-05T22:15:25.426Z,5.03
2018-01-05T22:17:53.086Z,4.94
2018-01-05T22:20:21.645Z,5.00
2018-01-05T22:22:49.267Z,4.83
2018-01-05T22:25:16.847Z,4.75
2018-01-05T22:27:44.496Z,4.65
2018-01-05T22:30:12.072Z,4.63
2018-01-05T22:32:39.720Z,4.63
2018-01-05T22:35:07.374Z,4.64
2018-01-05T22:37:34.939Z,4.66
2018-01-05T22:40:02.514Z,4.67
2018-01-05T22:42:30.091Z,4.66
2018-01-05T22:44:57.663Z,4.58
2018-01-05T22:47:26.103Z,4.51
2018-01-05T22:49:54.468Z,4.42
2018-01-05T22:52:22.045Z,4.39
2018-01-05T22:54:49.616Z,4.40
2018-01-05T22:57:18.103Z,4.38
2018-01-05T22:59:46.463Z,4.38
2018-01-05T23:02:14.126Z,4.40
2018-01-05T23:04:42.494Z,4.42
2018-01-05T23:07:10.974Z,4.44
2018-01-05T23:09:39.425Z,4.46
2018-01-05T23:12:06.991Z,4.51
2018-01-05T23:14:34.598Z,4.50
2018-01-05T23:17:02.171Z,4.54
2018-01-05T23:19:29.743Z,4.51
2018-01-05T23:21:57.359Z,4.51
2018-01-05T23:24:25.010Z,4.52
2018-01-05T23:26:52.590Z,4.52
2018-01-05T23:29:20.194Z,4.49
2018-01-05T23:31:47.766Z,4.57
2018-01-05T23:34:15.378Z,4.59
2018-01-05T23:36:43.006Z,4.52
2018-01-05T23:39:11.523Z,4.51
2018-01-05T23:41:39.095Z,4.55
2018-01-05T23:44:06.703Z,4.56
2018-01-05T23:46:34.306Z,4.58
2018-01-05T23:49:01.978Z,4.60
2018-01-05T23:51:30.575Z,4.63
2018-01-05T23:53:58.189Z,4.64
2018-01-05T23:56:25.766Z,4.60
2018-01-05T23:58:53.447Z,4.63
